Time;durP1;ratioP1;P1;durP2;ratioP2;P2;SDS_P1;SDS_P2;PMS_P1;PMS_P2;Temp;Humidity;BMP_temperature;BMP_pressure;BME280_temperature;BME280_humidity;BME280_pressure;Samples;Min_cycle;Max_cycle;Signal;HPM_P1;HPM_P2
2023/06/30 00:03:23;;;;;;;9.95;4.85;;;;;;;22.21;78.92;99537.56;10457061;28;20048;-72
2023/06/30 00:08:24;;;;;;;11.05;5.47;;;;;;;21.96;82.27;99536.34;10457344;28;20482;-67
2023/06/30 00:13:24;;;;;;;12.35;6.00;;;;;;;21.57;85.25;99498.00;10452652;28;20044;-66
2023/06/30 00:18:25;;;;;;;10.05;6.53;;;;;;;21.22;88.93;99469.66;10456005;28;20543;-66
2023/06/30 00:23:28;;;;;;;9.80;6.07;;;;;;;21.27;92.34;99477.78;10457501;28;20041;-67
2023/06/30 00:28:28;;;;;;;12.30;6.05;;;;;;;20.82;93.33;99424.22;10456980;28;20053;-67
2023/06/30 00:33:29;;;;;;;8.18;5.55;;;;;;;20.71;94.05;99412.56;10456844;28;20075;-67
2023/06/30 00:38:30;;;;;;;8.77;6.03;;;;;;;21.14;94.67;99508.72;10456714;28;20045;-67
2023/06/30 00:43:30;;;;;;;9.25;6.10;;;;;;;21.25;96.56;99549.34;10438918;28;20049;-67
2023/06/30 00:48:32;;;;;;;11.18;6.68;;;;;;;21.00;97.23;99512.97;10437604;28;20037;-66
2023/06/30 00:53:32;;;;;;;9.52;5.95;;;;;;;20.83;97.78;99488.78;10455883;28;20078;-67
2023/06/30 00:58:33;;;;;;;11.25;6.90;;;;;;;20.86;98.17;99499.06;10456110;28;20048;-67
2023/06/30 01:03:41;;;;;;;10.68;6.30;;;;;;;21.26;100.00;99569.88;10455760;28;20471;-67
2023/06/30 01:08:48;;;;;;;11.68;6.45;;;;;;;21.13;99.20;99577.34;10437849;28;20036;-67
2023/06/30 01:13:49;;;;;;;9.63;7.15;;;;;;;20.97;99.45;99579.09;10454880;28;20041;-67
2023/06/30 01:18:54;;;;;;;8.52;6.45;;;;;;;20.95;100.00;99593.91;10455241;28;20512;-67
2023/06/30 01:24:09;;;;;;;8.80;6.68;;;;;;;20.97;100.00;99603.38;10436693;28;20095;-67
2023/06/30 01:29:10;;;;;;;8.45;7.07;;;;;;;20.73;100.00;99593.91;10454694;28;20159;-68
2023/06/30 01:34:11;;;;;;;9.60;7.05;;;;;;;20.75;100.00;99589.09;10454050;28;20056;-67
2023/06/30 01:39:12;;;;;;;8.18;6.57;;;;;;;20.51;100.00;99538.06;10454977;28;20060;-68
2023/06/30 01:44:13;;;;;;;8.27;6.45;;;;;;;20.98;100.00;99620.38;10454623;28;20037;-67
2023/06/30 01:49:15;;;;;;;7.35;6.30;;;;;;;20.51;100.00;99553.44;10454331;28;20052;-67
2023/06/30 01:54:15;;;;;;;12.63;6.47;;;;;;;20.99;100.00;99632.81;10435914;28;20041;-68
2023/06/30 01:59:17;;;;;;;11.15;6.32;;;;;;;20.95;100.00;99621.72;10453612;28;20056;-68
2023/06/30 02:04:17;;;;;;;9.18;6.53;;;;;;;21.10;100.00;99631.84;10454028;28;20159;-68
2023/06/30 02:09:18;;;;;;;9.85;6.50;;;;;;;21.07;100.00;99615.34;10454478;28;20627;-68
2023/06/30 02:14:19;;;;;;;26.75;7.57;;;;;;;21.20;100.00;99628.44;10453287;28;20127;-68
2023/06/30 02:19:23;;;;;;;9.57;7.10;;;;;;;21.11;100.00;99613.75;10453769;28;20048;-68
2023/06/30 02:24:24;;;;;;;8.60;6.32;;;;;;;21.25;100.00;99644.69;10453732;28;20417;-69
2023/06/30 02:29:25;;;;;;;7.55;6.20;;;;;;;21.19;100.00;99646.53;10462096;28;20060;-69
2023/06/30 02:34:26;;;;;;;8.82;6.15;;;;;;;21.12;100.00;99639.69;10460995;28;20045;-68
2023/06/30 02:39:27;;;;;;;8.52;6.45;;;;;;;21.01;100.00;99621.78;10443202;28;20064;-68
2023/06/30 02:44:27;;;;;;;12.95;6.95;;;;;;;21.08;100.00;99630.47;10460441;28;20086;-69
2023/06/30 02:49:28;;;;;;;7.95;5.90;;;;;;;21.06;100.00;99638.00;10442613;28;20087;-68
2023/06/30 02:54:29;;;;;;;11.55;6.72;;;;;;;20.85;100.00;99602.72;10461364;28;20036;-68
2023/06/30 02:59:30;;;;;;;19.65;7.35;;;;;;;20.92;100.00;99622.22;10461177;28;20048;-68
2023/06/30 03:04:31;;;;;;;8.60;6.75;;;;;;;20.62;100.00;99555.22;10460560;28;20409;-69
2023/06/30 03:09:31;;;;;;;10.50;6.68;;;;;;;20.70;100.00;99535.03;10443225;28;20040;-69
2023/06/30 03:14:32;;;;;;;8.35;6.00;;;;;;;21.35;100.00;99619.66;10460165;28;20049;-69
2023/06/30 03:19:33;;;;;;;10.90;6.20;;;;;;;21.37;99.63;99610.25;10459647;28;20067;-68
2023/06/30 03:24:34;;;;;;;9.07;5.32;;;;;;;21.62;97.51;99635.84;10458273;28;20040;-69
2023/06/30 03:29:34;;;;;;;14.32;5.00;;;;;;;21.20;95.40;99553.63;10458509;28;20064;-70
2023/06/30 03:34:35;;;;;;;10.02;3.90;;;;;;;21.43;92.77;99579.50;10459230;28;20447;-70
2023/06/30 03:39:36;;;;;;;12.98;3.72;;;;;;;21.80;91.92;99637.34;10458024;28;20037;-71
2023/06/30 03:44:36;;;;;;;7.05;3.42;;;;;;;20.81;90.14;99517.91;10456878;28;20029;-71
2023/06/30 03:49:37;;;;;;;5.47;3.03;;;;;;;21.58;88.87;99637.47;10456751;28;20056;-70
2023/06/30 03:54:38;;;;;;;5.00;3.15;;;;;;;21.72;87.67;99651.34;10457054;28;20045;-71
2023/06/30 03:59:39;;;;;;;5.55;3.28;;;;;;;21.95;86.65;99612.31;10456585;28;20051;-70
2023/06/30 04:04:39;;;;;;;10.57;3.95;;;;;;;22.14;86.64;99639.72;10458254;28;20087;-69
2023/06/30 04:09:40;;;;;;;3.55;2.63;;;;;;;22.14;84.87;99616.22;10456679;28;20041;-71
2023/06/30 04:14:41;;;;;;;4.40;2.70;;;;;;;22.05;83.23;99601.56;10456368;28;20048;-70
2023/06/30 04:19:42;;;;;;;3.40;2.25;;;;;;;21.61;82.20;99537.75;10455013;28;20516;-71
2023/06/30 04:24:42;;;;;;;16.23;3.08;;;;;;;22.04;81.54;99581.00;10455761;28;20075;-72
2023/06/30 04:29:43;;;;;;;6.22;3.00;;;;;;;22.60;80.94;99662.47;10456263;28;20084;-71
2023/06/30 04:34:44;;;;;;;5.50;3.20;;;;;;;22.23;80.64;99587.63;10437009;28;20047;-71
2023/06/30 04:39:47;;;;;;;9.07;3.15;;;;;;;22.63;80.61;99653.84;10455963;28;20037;-71
2023/06/30 04:44:48;;;;;;;5.80;3.30;;;;;;;22.65;81.00;99667.94;10454996;28;20437;-72
2023/06/30 04:49:49;;;;;;;7.55;2.85;;;;;;;22.06;82.82;99660.81;10453788;28;20091;-68
2023/06/30 04:54:50;;;;;;;5.25;3.22;;;;;;;21.19;85.25;99583.59;10455403;28;20045;-67
2023/06/30 04:59:51;;;;;;;6.72;3.20;;;;;;;21.43;87.17;99684.06;10455959;28;20106;-67
2023/06/30 05:04:51;;;;;;;11.75;4.50;;;;;;;21.28;89.45;99698.22;10455716;28;20515;-66
2023/06/30 05:09:52;;;;;;;8.05;4.15;;;;;;;21.02;92.07;99690.91;10455727;28;20045;-65
2023/06/30 05:14:53;;;;;;;15.63;6.30;;;;;;;20.91;95.05;99690.78;10455865;28;20033;-66
2023/06/30 05:19:54;;;;;;;8.57;4.35;;;;;;;20.69;97.55;99684.56;10454498;28;20041;-66
2023/06/30 05:24:54;;;;;;;6.88;4.20;;;;;;;20.26;98.21;99635.69;10455148;28;20037;-66
2023/06/30 05:29:55;;;;;;;8.40;4.80;;;;;;;20.21;98.83;99621.31;10454939;28;20451;-66
2023/06/30 05:34:56;;;;;;;8.02;5.22;;;;;;;20.47;100.00;99668.34;10437395;28;20079;-70
2023/06/30 05:39:57;;;;;;;13.63;5.03;;;;;;;20.49;100.00;99669.72;10454808;28;20134;-66
2023/06/30 05:44:57;;;;;;;9.82;4.65;;;;;;;20.61;100.00;99677.75;10454575;28;20166;-66
2023/06/30 05:49:58;;;;;;;10.18;4.68;;;;;;;20.64;100.00;99682.63;10454433;28;20072;-66
2023/06/30 05:54:59;;;;;;;9.52;5.00;;;;;;;20.51;100.00;99669.47;10435025;28;20111;-67
2023/06/30 06:00:00;;;;;;;11.15;4.88;;;;;;;20.65;100.00;99695.03;10456124;28;20044;-68
2023/06/30 06:05:00;;;;;;;8.43;4.70;;;;;;;20.67;100.00;99692.09;10462297;28;20489;-66
2023/06/30 06:10:01;;;;;;;41.60;7.57;;;;;;;20.59;100.00;99698.75;10461749;28;20515;-66
2023/06/30 06:15:02;;;;;;;19.55;5.90;;;;;;;20.57;100.00;99694.66;10462489;28;20491;-68
2023/06/30 06:20:03;;;;;;;12.48;6.00;;;;;;;20.64;100.00;99706.91;10463071;28;20500;-66
2023/06/30 06:25:05;;;;;;;8.55;4.97;;;;;;;20.65;100.00;99723.91;10461929;28;20139;-66
2023/06/30 06:30:06;;;;;;;8.13;5.50;;;;;;;20.49;100.00;99718.28;10461818;28;20049;-66
2023/06/30 06:35:07;;;;;;;7.95;4.72;;;;;;;20.40;100.00;99711.69;10461540;28;20076;-66
2023/06/30 06:40:09;;;;;;;5.78;4.40;;;;;;;20.22;100.00;99725.41;10462550;28;20057;-65
2023/06/30 06:45:10;;;;;;;6.47;4.22;;;;;;;19.99;100.00;99723.72;10443551;28;20041;-66
2023/06/30 06:50:10;;;;;;;8.95;4.60;;;;;;;19.03;100.00;99605.13;10443375;28;20048;-66
2023/06/30 06:55:11;;;;;;;8.05;4.25;;;;;;;19.85;100.00;99747.47;10460892;28;20041;-66
2023/06/30 07:00:13;;;;;;;6.45;4.43;;;;;;;19.76;100.00;99738.97;10460309;28;20049;-67
2023/06/30 07:05:14;;;;;;;8.88;4.32;;;;;;;19.79;100.00;99737.66;10460758;28;20040;-66
2023/06/30 07:10:14;;;;;;;9.48;4.47;;;;;;;19.87;100.00;99726.50;10459714;28;20093;-66
2023/06/30 07:15:15;;;;;;;10.55;5.03;;;;;;;19.74;100.00;99714.16;10460094;28;20033;-67
2023/06/30 07:20:16;;;;;;;6.22;4.38;;;;;;;19.98;100.00;99724.75;10459489;28;20037;-67
2023/06/30 07:25:17;;;;;;;7.22;4.18;;;;;;;20.11;100.00;99734.44;10442182;28;20041;-66
2023/06/30 07:30:18;;;;;;;9.35;5.13;;;;;;;20.21;100.00;99713.00;10460090;28;20060;-67
2023/06/30 07:35:20;;;;;;;8.50;5.43;;;;;;;19.95;100.00;99642.53;10441690;28;20400;-66
2023/06/30 07:40:20;;;;;;;8.00;4.38;;;;;;;20.55;100.00;99702.19;10440761;28;20051;-66
2023/06/30 07:45:21;;;;;;;7.82;4.97;;;;;;;20.57;100.00;99694.66;10459471;28;20535;-67
2023/06/30 07:50:24;;;;;;;17.58;5.80;;;;;;;20.41;100.00;99648.56;10458666;28;20072;-67
2023/06/30 07:55:24;;;;;;;7.05;5.15;;;;;;;20.93;100.00;99720.22;10459086;28;20037;-67
2023/06/30 08:00:28;;;;;;;10.98;4.90;;;;;;;20.62;100.00;99654.25;10440818;28;20489;-67
2023/06/30 08:05:29;;;;;;;7.50;4.90;;;;;;;20.95;100.00;99696.50;10439868;28;20103;-67
2023/06/30 08:10:30;;;;;;;6.63;4.40;;;;;;;20.41;100.00;99615.38;10458971;28;20083;-67
2023/06/30 08:15:31;;;;;;;5.40;4.53;;;;;;;20.72;100.00;99657.06;10457727;28;20040;-67
2023/06/30 08:20:31;;;;;;;7.22;5.75;;;;;;;20.55;100.00;99621.22;10457679;28;20095;-67
2023/06/30 08:25:32;;;;;;;7.40;4.40;;;;;;;21.09;100.00;99681.53;10456284;28;20554;-67
2023/06/30 08:30:33;;;;;;;5.53;4.50;;;;;;;20.69;100.00;99596.31;10457554;28;20053;-66
2023/06/30 08:35:34;;;;;;;7.10;5.07;;;;;;;21.26;100.00;99678.72;10457114;28;20053;-66
2023/06/30 08:40:35;;;;;;;13.68;5.57;;;;;;;21.49;100.00;99683.06;10438982;28;20033;-65
2023/06/30 08:45:36;;;;;;;7.43;4.65;;;;;;;21.12;100.00;99615.38;10438497;28;20033;-65
2023/06/30 08:50:38;;;;;;;7.70;4.75;;;;;;;21.67;100.00;99684.56;10456161;28;20048;-65
2023/06/30 08:55:40;;;;;;;7.93;5.03;;;;;;;21.36;100.00;99605.94;10455595;28;20041;-65
2023/06/30 09:00:41;;;;;;;11.07;5.45;;;;;;;21.34;100.00;99593.72;10456076;28;20037;-65
2023/06/30 09:05:42;;;;;;;9.57;5.10;;;;;;;21.87;100.00;99665.00;10455288;28;20033;-66
2023/06/30 09:10:44;;;;;;;7.45;5.18;;;;;;;21.97;100.00;99677.78;10438274;28;20041;-66
2023/06/30 09:15:46;;;;;;;9.98;4.68;;;;;;;21.65;100.00;99627.25;10438512;28;20040;-66
2023/06/30 09:20:47;;;;;;;8.38;4.90;;;;;;;21.84;100.00;99682.56;10437574;28;20037;-66
2023/06/30 09:25:48;;;;;;;6.72;4.72;;;;;;;21.80;100.00;99689.53;10455201;28;20037;-66
2023/06/30 09:30:48;;;;;;;6.53;5.10;;;;;;;21.13;100.00;99619.72;10454533;28;20052;-66
2023/06/30 09:35:50;;;;;;;6.80;5.43;;;;;;;21.40;100.00;99693.50;10454163;28;20492;-66
2023/06/30 09:40:50;;;;;;;9.18;6.07;;;;;;;21.42;100.00;99713.00;10454506;28;20040;-66
2023/06/30 09:45:56;;;;;;;8.98;5.93;;;;;;;21.19;100.00;99697.84;10453950;28;20034;-65
2023/06/30 09:50:57;;;;;;;11.50;5.60;;;;;;;21.01;100.00;99683.88;10453947;28;20044;-67
2023/06/30 09:55:58;;;;;;;8.70;5.88;;;;;;;20.99;100.00;99697.63;10446398;28;20063;-66
2023/06/30 10:00:59;;;;;;;11.15;6.72;;;;;;;21.01;100.00;99700.88;10450407;28;20487;-66
2023/06/30 10:06:00;;;;;;;8.35;5.63;;;;;;;20.87;100.00;99699.63;10452242;28;20045;-66
2023/06/30 10:11:01;;;;;;;10.30;5.38;;;;;;;20.83;100.00;99691.22;10451520;28;20055;-66
2023/06/30 10:16:05;;;;;;;6.88;6.18;;;;;;;19.95;100.00;99558.97;10450879;28;20116;-67
2023/06/30 10:21:05;;;;;;;;;;;;;;;20.95;100.00;99685.69;10449833;28;20114;-67
2023/06/30 10:26:06;;;;;;;9.32;5.95;;;;;;;20.77;100.00;99689.53;10452091;28;19917;-66
2023/06/30 10:31:09;;;;;;;8.18;6.15;;;;;;;20.73;100.00;99705.41;10449947;28;20053;-66
2023/06/30 10:36:10;;;;;;;9.82;5.68;;;;;;;20.71;100.00;99701.34;10450152;28;20045;-66
2023/06/30 10:41:17;;;;;;;11.07;6.30;;;;;;;20.65;100.00;99686.94;10433027;28;20106;-69
2023/06/30 10:46:17;;;;;;;9.40;6.88;;;;;;;20.30;100.00;99609.03;10452561;28;20048;-67
2023/06/30 10:51:18;;;;;;;8.82;6.70;;;;;;;20.42;100.00;99630.50;10457894;28;20443;-66
2023/06/30 10:56:22;;;;;;;11.32;5.95;;;;;;;20.36;100.00;99612.59;10454528;28;20076;-67
2023/06/30 11:01:22;;;;;;;8.05;5.22;;;;;;;20.83;100.00;99671.53;10435155;28;20040;-67
2023/06/30 11:06:25;;;;;;;8.13;5.80;;;;;;;20.77;100.00;99676.03;10438752;28;20045;-67
2023/06/30 11:11:29;;;;;;;8.13;5.68;;;;;;;20.78;100.00;99668.75;10459655;28;20091;-67
2023/06/30 11:16:30;;;;;;;8.90;6.45;;;;;;;20.84;100.00;99676.66;10455464;28;20041;-67
2023/06/30 11:21:32;;;;;;;10.02;6.03;;;;;;;20.41;100.00;99610.00;10457282;28;20048;-67
2023/06/30 11:26:36;;;;;;;8.77;6.40;;;;;;;20.34;100.00;99599.38;10460365;28;20044;-67
2023/06/30 11:31:37;;;;;;;10.45;6.30;;;;;;;20.80;100.00;99666.63;10458570;28;20063;-66
2023/06/30 11:36:37;;;;;;;6.05;5.45;;;;;;;20.36;100.00;99589.16;10458649;28;20390;-66
2023/06/30 11:41:38;;;;;;;6.93;4.90;;;;;;;20.80;100.00;99653.13;10441470;28;20128;-67
2023/06/30 11:46:39;;;;;;;7.05;5.43;;;;;;;20.70;100.00;99637.59;10459012;28;20043;-67
2023/06/30 11:51:40;;;;;;;11.85;5.25;;;;;;;20.83;100.00;99650.72;10458906;28;20378;-67
2023/06/30 11:56:41;;;;;;;8.15;4.13;;;;;;;20.85;100.00;99666.66;10458512;28;20037;-67
2023/06/30 12:01:42;;;;;;;8.23;4.60;;;;;;;20.78;100.00;99668.75;10456461;28;20515;-67
2023/06/30 12:06:43;;;;;;;5.88;4.43;;;;;;;20.90;100.00;99682.94;10438081;28;20505;-67
2023/06/30 12:11:44;;;;;;;8.23;4.40;;;;;;;20.89;100.00;99676.72;10457378;28;20087;-69
2023/06/30 12:16:49;;;;;;;5.22;3.92;;;;;;;20.55;100.00;99618.53;10448891;28;20033;-67
2023/06/30 12:21:54;;;;;;;6.75;3.90;;;;;;;20.81;100.00;99677.16;10455679;28;20489;-66
2023/06/30 12:26:55;;;;;;;5.65;3.25;;;;;;;20.89;100.00;99671.31;10455371;28;20037;-66
2023/06/30 12:31:56;;;;;;;4.35;2.80;;;;;;;20.77;100.00;99654.44;10454995;28;20147;-66
2023/06/30 12:36:57;;;;;;;4.30;2.88;;;;;;;20.67;100.00;99638.09;10455197;28;20076;-66
2023/06/30 12:41:58;;;;;;;3.83;2.95;;;;;;;20.69;100.00;99661.09;10453465;28;20071;-66
2023/06/30 12:47:05;;;;;;;5.10;3.20;;;;;;;20.69;100.00;99652.19;10455977;28;20072;-66
2023/06/30 12:52:06;;;;;;;6.05;2.92;;;;;;;20.84;100.00;99656.94;10456431;28;20102;-66
2023/06/30 12:57:07;;;;;;;6.55;3.20;;;;;;;20.91;100.00;99650.28;10454870;28;20416;-66
2023/06/30 13:02:08;;;;;;;5.45;3.08;;;;;;;20.95;100.00;99647.91;10454819;28;20132;-66
2023/06/30 13:07:09;;;;;;;6.95;3.30;;;;;;;20.95;100.00;99639.81;10454658;28;20131;-65
2023/06/30 13:12:09;;;;;;;6.03;3.40;;;;;;;21.02;100.00;99634.19;10455292;28;20127;-67
2023/06/30 13:17:10;;;;;;;6.10;3.85;;;;;;;20.91;100.00;99626.00;10455515;28;20085;-67
2023/06/30 13:22:13;;;;;;;5.47;3.72;;;;;;;20.20;100.00;99511.81;10454292;28;20075;-66
2023/06/30 13:27:14;;;;;;;5.25;3.78;;;;;;;20.60;100.00;99568.16;10436536;28;20386;-67
2023/06/30 13:32:16;;;;;;;5.05;3.28;;;;;;;21.17;100.00;99639.75;10454881;28;20061;-66
2023/06/30 13:37:17;;;;;;;7.68;3.30;;;;;;;21.38;100.00;99629.97;10453939;28;20140;-67
2023/06/30 13:42:18;;;;;;;5.18;3.40;;;;;;;21.46;100.00;99616.00;10454001;28;20112;-67
2023/06/30 13:47:18;;;;;;;4.53;3.42;;;;;;;21.51;100.00;99628.72;10454300;28;20036;-67
2023/06/30 13:52:19;;;;;;;5.63;3.90;;;;;;;20.98;100.00;99556.41;10435330;28;20056;-66
2023/06/30 13:57:20;;;;;;;15.45;3.60;;;;;;;21.20;100.00;99612.22;10453736;28;20094;-66
2023/06/30 14:02:21;;;;;;;4.50;3.72;;;;;;;20.70;100.00;99543.16;10453852;28;20143;-66
2023/06/30 14:07:22;;;;;;;6.38;3.58;;;;;;;21.07;100.00;99624.25;10454290;28;20036;-66
2023/06/30 14:12:22;;;;;;;5.18;3.65;;;;;;;21.09;100.00;99632.94;10453363;28;20051;-66
2023/06/30 14:17:23;;;;;;;6.00;3.20;;;;;;;20.63;100.00;99564.94;10454537;28;20106;-66
2023/06/30 14:22:24;;;;;;;4.93;3.13;;;;;;;21.01;100.00;99624.47;10438778;28;20076;-66
2023/06/30 14:27:25;;;;;;;5.13;3.30;;;;;;;20.89;100.00;99606.53;10461663;28;20455;-66
2023/06/30 14:32:26;;;;;;;6.65;3.47;;;;;;;20.91;100.00;99630.56;10462319;28;20057;-66
2023/06/30 14:37:27;;;;;;;6.10;3.20;;;;;;;20.74;100.00;99595.56;10461640;28;20044;-66
2023/06/30 14:42:28;;;;;;;5.13;2.75;;;;;;;20.80;100.00;99618.84;10457263;28;20817;-67
2023/06/30 14:47:29;;;;;;;6.78;3.60;;;;;;;20.74;100.00;99611.75;10460955;28;20037;-67
2023/06/30 14:52:30;;;;;;;9.73;3.50;;;;;;;20.74;100.00;99614.47;10461518;28;20041;-67
2023/06/30 14:57:31;;;;;;;7.28;4.60;;;;;;;20.46;100.00;99572.25;10460264;28;20041;-67
2023/06/30 15:02:31;;;;;;;6.32;5.30;;;;;;;20.58;100.00;99589.19;10456347;28;20069;-68
2023/06/30 15:07:32;;;;;;;6.28;4.50;;;;;;;20.21;100.00;99521.53;10459314;28;20485;-67
2023/06/30 15:12:33;;;;;;;9.02;4.63;;;;;;;20.65;100.00;99591.69;10451995;28;20045;-67
2023/06/30 15:17:34;;;;;;;8.38;5.38;;;;;;;20.50;100.00;99551.81;10457726;28;20140;-66
2023/06/30 15:22:35;;;;;;;14.95;5.85;;;;;;;20.63;100.00;99580.31;10458278;28;20124;-66
2023/06/30 15:27:36;;;;;;;7.63;5.30;;;;;;;20.64;100.00;99588.19;10456666;28;20083;-66
2023/06/30 15:32:36;;;;;;;10.55;5.18;;;;;;;20.53;100.00;99564.84;10455601;28;20114;-66
2023/06/30 15:37:38;;;;;;;7.20;5.45;;;;;;;20.60;100.00;99586.22;10455002;28;20128;-66
2023/06/30 15:42:39;;;;;;;11.20;6.20;;;;;;;20.59;100.00;99590.00;10459171;28;20040;-66
2023/06/30 15:47:40;;;;;;;10.52;5.75;;;;;;;20.49;100.00;99580.69;10458890;28;20404;-66
2023/06/30 15:52:41;;;;;;;11.38;5.30;;;;;;;20.41;100.00;99578.44;10458314;28;20056;-66
2023/06/30 15:57:42;;;;;;;10.25;5.65;;;;;;;20.36;100.00;99561.34;10458578;28;20041;-66
2023/06/30 16:02:43;;;;;;;9.50;5.32;;;;;;;20.33;100.00;99576.16;10458237;28;20123;-66
2023/06/30 16:07:44;;;;;;;9.48;5.85;;;;;;;20.33;100.00;99580.75;10457697;28;20132;-65
2023/06/30 16:12:44;;;;;;;7.22;6.00;;;;;;;19.58;100.00;99477.84;10457756;28;20044;-68
2023/06/30 16:17:45;;;;;;;8.68;6.65;;;;;;;20.25;100.00;99581.97;10453725;28;20093;-66
2023/06/30 16:22:46;;;;;;;12.55;7.32;;;;;;;20.16;100.00;99581.63;10453340;28;20492;-66
2023/06/30 16:27:47;;;;;;;10.32;6.82;;;;;;;20.17;100.00;99582.44;10435560;28;20465;-68
2023/06/30 16:32:48;;;;;;;9.73;6.63;;;;;;;20.27;100.00;99602.25;10454793;28;20041;-66
2023/06/30 16:37:49;;;;;;;12.45;6.43;;;;;;;19.80;100.00;99543.41;10457435;28;20475;-66
2023/06/30 16:42:50;;;;;;;11.32;6.43;;;;;;;20.06;100.00;99630.00;10438457;28;20543;-66
2023/06/30 16:47:51;;;;;;;13.55;6.57;;;;;;;19.44;100.00;99566.22;10438296;28;20537;-66
2023/06/30 16:52:52;;;;;;;10.00;5.93;;;;;;;19.64;100.00;99621.50;10456139;28;20067;-66
2023/06/30 16:57:52;;;;;;;8.88;5.72;;;;;;;19.53;100.00;99617.81;10455797;28;20512;-66
2023/06/30 17:02:55;;;;;;;13.27;6.38;;;;;;;19.50;100.00;99631.78;10455492;28;20524;-66
2023/06/30 17:07:55;;;;;;;11.77;6.38;;;;;;;19.36;100.00;99645.56;10455141;28;20118;-66
2023/06/30 17:12:56;;;;;;;15.60;7.07;;;;;;;19.15;100.00;99641.69;10455200;28;20114;-66
2023/06/30 17:17:57;;;;;;;12.57;7.90;;;;;;;19.16;100.00;99651.41;10455958;28;20048;-66
2023/06/30 17:22:58;;;;;;;12.68;8.98;;;;;;;19.25;100.00;99661.78;10452892;28;20041;-66
2023/06/30 17:27:59;;;;;;;11.38;7.43;;;;;;;19.28;100.00;99670.19;10450115;28;20048;-66
2023/06/30 17:33:02;;;;;;;12.15;7.97;;;;;;;19.20;100.00;99683.22;10454159;28;20045;-66
2023/06/30 17:38:04;;;;;;;12.18;7.60;;;;;;;19.14;100.00;99687.69;10454986;28;20095;-67
2023/06/30 17:43:05;;;;;;;13.70;8.05;;;;;;;18.95;100.00;99667.41;10454464;28;20080;-66
2023/06/30 17:48:06;;;;;;;11.80;8.88;;;;;;;19.15;100.00;99706.31;10453398;28;20048;-66
2023/06/30 17:53:08;;;;;;;8.68;7.68;;;;;;;19.19;100.00;99695.06;10454072;28;20041;-66
2023/06/30 17:58:09;;;;;;;11.77;7.45;;;;;;;18.80;100.00;99632.94;10454107;28;20500;-66
2023/06/30 18:03:10;;;;;;;17.80;8.00;;;;;;;19.21;100.00;99692.97;10452767;28;20037;-68
2023/06/30 18:08:11;;;;;;;10.20;7.82;;;;;;;19.17;100.00;99692.59;10454122;28;20124;-66
2023/06/30 18:13:11;;;;;;;16.30;8.30;;;;;;;19.17;100.00;99692.59;10452197;28;20049;-66
2023/06/30 18:18:12;;;;;;;13.75;7.60;;;;;;;19.08;100.00;99684.09;10452746;28;20071;-66
2023/06/30 18:23:13;;;;;;;12.43;7.88;;;;;;;19.07;100.00;99687.84;10431336;28;20079;-66
2023/06/30 18:28:14;;;;;;;12.90;7.53;;;;;;;19.04;100.00;99699.09;10450660;28;20056;-66
2023/06/30 18:33:15;;;;;;;14.32;7.60;;;;;;;18.98;100.00;99686.59;10451875;28;20053;-66
2023/06/30 18:38:16;;;;;;;11.82;8.13;;;;;;;18.51;100.00;99605.97;10451914;28;20540;-66
2023/06/30 18:43:16;;;;;;;13.00;8.52;;;;;;;18.96;100.00;99672.53;10453462;28;20049;-67
2023/06/30 18:48:17;;;;;;;14.48;8.80;;;;;;;18.44;100.00;99581.09;10454300;28;20041;-66
2023/06/30 18:53:19;;;;;;;13.80;8.70;;;;;;;18.96;100.00;99679.81;10449965;28;20052;-66
2023/06/30 18:58:19;;;;;;;13.40;8.10;;;;;;;18.80;100.00;99636.44;10450735;28;20720;-67
2023/06/30 19:03:22;;;;;;;14.65;9.15;;;;;;;18.87;100.00;99649.75;10449500;28;20029;-67
2023/06/30 19:08:22;;;;;;;19.65;9.50;;;;;;;18.83;100.00;99664.75;10435838;28;20603;-67
2023/06/30 19:13:23;;;;;;;16.67;9.93;;;;;;;18.82;100.00;99665.84;10458756;28;20041;-65
2023/06/30 19:18:24;;;;;;;15.52;9.15;;;;;;;18.74;100.00;99663.50;10459717;28;20048;-65
2023/06/30 19:23:25;;;;;;;20.55;8.73;;;;;;;18.57;100.00;99645.38;10459214;28;20033;-65
2023/06/30 19:28:26;;;;;;;16.05;9.55;;;;;;;18.46;100.00;99638.16;10459811;28;20049;-65
2023/06/30 19:33:30;;;;;;;13.30;9.38;;;;;;;18.64;100.00;99672.16;10459451;28;20053;-65
2023/06/30 19:38:30;;;;;;;15.23;9.38;;;;;;;17.78;100.00;99530.25;10458960;28;20048;-65
2023/06/30 19:43:31;;;;;;;12.48;9.02;;;;;;;18.61;100.00;99678.81;10459230;28;20053;-65
2023/06/30 19:48:32;;;;;;;13.93;9.50;;;;;;;18.44;100.00;99662.59;10458715;28;20124;-65
2023/06/30 19:53:33;;;;;;;18.80;8.65;;;;;;;18.48;100.00;99679.06;10441441;28;20037;-65
2023/06/30 19:58:34;;;;;;;13.75;9.40;;;;;;;18.43;100.00;99660.16;10458633;28;20075;-65
2023/06/30 20:03:35;;;;;;;21.48;10.85;;;;;;;18.39;100.00;99656.28;10457857;28;20104;-65
2023/06/30 20:08:35;;;;;;;19.00;13.82;;;;;;;18.43;100.00;99646.72;10459047;28;20045;-65
2023/06/30 20:13:36;;;;;;;20.00;11.38;;;;;;;18.42;100.00;99632.41;10458232;28;20040;-65
2023/06/30 20:18:37;;;;;;;13.77;9.52;;;;;;;17.97;100.00;99548.94;10457234;28;20095;-65
2023/06/30 20:23:38;;;;;;;15.18;8.30;;;;;;;18.53;100.00;99636.16;10457547;28;20442;-65
2023/06/30 20:28:39;;;;;;;11.48;7.78;;;;;;;18.00;100.00;99548.44;10457194;28;20056;-64
2023/06/30 20:33:39;;;;;;;11.07;7.78;;;;;;;18.54;100.00;99623.50;10456940;28;20045;-65
2023/06/30 20:38:40;;;;;;;13.27;8.10;;;;;;;18.52;100.00;99620.22;10457090;28;20059;-65
2023/06/30 20:43:41;;;;;;;13.20;7.57;;;;;;;18.50;100.00;99619.69;10456315;28;20484;-65
2023/06/30 20:48:42;;;;;;;11.63;7.65;;;;;;;18.55;100.00;99620.59;10456705;28;20449;-65
2023/06/30 20:53:42;;;;;;;15.02;8.13;;;;;;;18.41;100.00;99600.41;10456412;28;20110;-65
2023/06/30 20:58:43;;;;;;;12.35;8.30;;;;;;;18.03;100.00;99537.22;10455638;28;20068;-65
2023/06/30 21:03:44;;;;;;;15.43;9.13;;;;;;;18.07;100.00;99538.41;10438909;28;20036;-65
2023/06/30 21:08:45;;;;;;;16.90;8.20;;;;;;;18.45;100.00;99606.94;10455990;28;20421;-65
2023/06/30 21:13:46;;;;;;;18.13;8.32;;;;;;;18.47;100.00;99610.19;10456040;28;20072;-69
2023/06/30 21:18:47;;;;;;;14.48;8.35;;;;;;;18.42;100.00;99607.41;10455102;28;20087;-65
2023/06/30 21:23:47;;;;;;;15.73;8.10;;;;;;;18.41;100.00;99621.91;10455899;28;20481;-65
2023/06/30 21:28:48;;;;;;;16.83;8.93;;;;;;;18.32;100.00;99607.19;10455512;28;20472;-65
2023/06/30 21:33:49;;;;;;;16.05;8.38;;;;;;;18.37;100.00;99613.50;10454353;28;20103;-65
2023/06/30 21:38:50;;;;;;;15.35;7.72;;;;;;;18.23;100.00;99602.19;10436327;28;20115;-65
2023/06/30 21:43:51;;;;;;;15.57;8.02;;;;;;;18.34;100.00;99621.22;10453957;28;20043;-65
2023/06/30 21:48:52;;;;;;;14.48;8.07;;;;;;;18.22;100.00;99603.25;10453939;28;20033;-65
2023/06/30 21:53:53;;;;;;;14.50;7.97;;;;;;;18.14;100.00;99608.16;10454605;28;20048;-65
2023/06/30 21:58:54;;;;;;;13.25;7.43;;;;;;;17.54;100.00;99542.84;10454607;28;20071;-65
2023/06/30 22:03:55;;;;;;;14.50;8.15;;;;;;;17.96;100.00;99598.34;10454930;28;20071;-65
2023/06/30 22:08:55;;;;;;;17.58;9.35;;;;;;;18.08;100.00;99615.28;10454741;28;20049;-65
2023/06/30 22:13:56;;;;;;;19.67;8.43;;;;;;;18.12;100.00;99624.50;10453738;28;20049;-65
2023/06/30 22:18:57;;;;;;;13.15;7.68;;;;;;;18.12;100.00;99626.38;10454683;28;20404;-65
2023/06/30 22:23:58;;;;;;;11.70;8.00;;;;;;;18.05;100.00;99621.13;10453881;28;20037;-65
2023/06/30 22:28:59;;;;;;;18.60;8.40;;;;;;;17.78;100.00;99577.81;10453617;28;20064;-65
2023/06/30 22:34:00;;;;;;;19.98;8.23;;;;;;;17.87;100.00;99592.53;10453240;28;20040;-65
2023/06/30 22:39:00;;;;;;;14.65;8.50;;;;;;;17.95;100.00;99620.91;10453293;28;20131;-68
2023/06/30 22:44:01;;;;;;;14.63;7.88;;;;;;;17.91;100.00;99638.53;10458124;28;20037;-65
2023/06/30 22:49:03;;;;;;;17.48;7.68;;;;;;;17.36;100.00;99559.06;10461500;28;20041;-65
2023/06/30 22:54:04;;;;;;;14.15;7.07;;;;;;;17.79;100.00;99647.41;10461162;28;20226;-65
2023/06/30 22:59:04;;;;;;;22.90;7.53;;;;;;;17.22;100.00;99587.97;10460342;28;20465;-66